Time;durP1;ratioP1;P1;durP2;ratioP2;P2;SDS_P1;SDS_P2;PMS_P1;PMS_P2;Temp;Humidity;BMP_temperature;BMP_pressure;BME280_temperature;BME280_humidity;BME280_pressure;Samples;Min_cycle;Max_cycle;Signal;HPM_P1;HPM_P2
2023/04/02 00:01:42;;;;;;;23.77;20.17;;;9.40;99.90;;;;;;5060013;28;20199;-88
2023/04/02 00:04:28;;;;;;;25.17;19.40;;;9.30;99.90;;;;;;5057344;28;20188;-91
2023/04/02 00:07:39;;;;;;;21.33;16.20;;;9.30;99.90;;;;;;5060779;28;20211;-90
2023/04/02 00:10:28;;;;;;;22.30;18.03;;;9.20;99.90;;;;;;4961065;28;20183;-91
2023/04/02 00:13:21;;;;;;;21.30;15.60;;;9.20;99.90;;;;;;4960958;28;20167;-90
2023/04/02 00:15:50;;;;;;;18.97;14.87;;;9.20;99.90;;;;;;5058617;28;20639;-90
2023/04/02 00:18:20;;;;;;;20.30;15.07;;;9.10;99.90;;;;;;5064431;28;20173;-92
2023/04/02 00:21:08;;;;;;;19.10;15.13;;;9.00;99.90;;;;;;5060774;28;20201;-90
2023/04/02 00:23:59;;;;;;;21.40;17.23;;;9.00;99.90;;;;;;5050574;28;20184;-91
2023/04/02 00:29:50;;;;;;;19.97;15.53;;;9.00;99.90;;;;;;5073946;28;20184;-91
2023/04/02 00:32:45;;;;;;;21.87;17.43;;;8.90;99.90;;;;;;5060849;28;20180;-91
2023/04/02 00:35:22;;;;;;;21.60;17.30;;;8.90;99.90;;;;;;5061763;28;20188;-90
2023/04/02 00:38:12;;;;;;;18.97;14.30;;;9.00;99.90;;;;;;5061088;28;20262;-92
2023/04/02 00:40:40;;;;;;;17.23;13.37;;;8.90;99.90;;;;;;5059304;28;20185;-91
2023/04/02 00:43:19;;;;;;;16.97;13.53;;;8.90;99.90;;;;;;5059397;28;20172;-91
2023/04/02 00:45:55;;;;;;;18.23;14.67;;;8.80;99.90;;;;;;5058743;28;20303;-92
2023/04/02 00:48:33;;;;;;;15.40;11.70;;;8.80;99.90;;;;;;5059140;28;20175;-91
2023/04/02 00:51:40;;;;;;;13.83;11.27;;;8.70;99.90;;;;;;5059660;28;20717;-90
2023/04/02 00:54:47;;;;;;;13.97;11.70;;;8.70;99.90;;;;;;5060324;28;20245;-89
2023/04/02 00:57:22;;;;;;;14.87;12.53;;;8.70;99.90;;;;;;5066444;28;20207;-89
2023/04/02 01:00:26;;;;;;;15.23;11.43;;;8.70;99.90;;;;;;5080269;28;20171;-91
2023/04/02 01:03:12;;;;;;;15.30;11.70;;;8.70;99.90;;;;;;5078239;28;20257;-91
2023/04/02 01:05:55;;;;;;;14.97;11.53;;;8.60;99.90;;;;;;5062610;28;20742;-91
2023/04/02 01:08:49;;;;;;;;;;;;;;;;;;;;;
2023/04/02 01:11:51;;;;;;;15.80;11.57;;;8.60;99.90;;;;;;5076047;28;20542;-91
2023/04/02 01:14:51;;;;;;;16.50;12.67;;;8.60;99.90;;;;;;5063179;28;20175;-89
2023/04/02 01:18:22;;;;;;;17.47;14.03;;;8.60;99.90;;;;;;5062107;28;20299;-90
2023/04/02 01:21:31;;;;;;;17.43;13.10;;;8.50;99.90;;;;;;5001358;28;20186;-90
2023/04/02 01:24:27;;;;;;;16.50;13.13;;;8.50;99.90;;;;;;5033283;28;20195;-92
2023/04/02 01:27:00;;;;;;;17.87;14.70;;;8.50;99.90;;;;;;5062637;28;20179;-90
2023/04/02 01:30:02;;;;;;;18.03;14.37;;;8.50;99.90;;;;;;5060506;28;20172;-90
2023/04/02 01:32:37;;;;;;;17.90;13.57;;;8.50;99.90;;;;;;5074294;28;20163;-90
2023/04/02 01:35:07;;;;;;;17.00;13.70;;;8.50;99.90;;;;;;5060717;28;20180;-90
2023/04/02 01:38:09;;;;;;;14.73;12.07;;;8.50;99.90;;;;;;5066012;28;20176;-90
2023/04/02 01:41:12;;;;;;;11.73;8.33;;;8.40;99.90;;;;;;5074645;28;20176;-90
2023/04/02 01:44:38;;;;;;;13.10;9.97;;;8.40;99.90;;;;;;5046359;28;20253;-90
2023/04/02 01:50:55;;;;;;;13.30;10.27;;;8.30;99.90;;;;;;5004774;28;20195;-91
2023/04/02 01:54:21;;;;;;;12.07;9.50;;;8.30;99.90;;;;;;5057073;28;20203;-90
2023/04/02 02:03:35;;;;;;;15.90;11.90;;;8.20;99.90;;;;;;4993438;28;20557;-90
2023/04/02 02:06:05;;;;;;;16.40;13.03;;;8.20;99.90;;;;;;5057160;28;20218;-91
2023/04/02 02:09:31;;;;;;;16.70;12.20;;;8.20;99.90;;;;;;5057316;28;20180;-91
2023/04/02 02:12:53;;;;;;;14.73;11.57;;;8.20;99.90;;;;;;4897898;29;20193;-90
2023/04/02 02:16:20;;;;;;;18.30;14.10;;;8.20;99.90;;;;;;4881418;29;20624;-90
2023/04/02 02:23:09;;;;;;;;;;;;;;;;;;;;;
2023/04/02 02:42:27;;;;;;;14.90;11.57;;;8.10;99.90;;;;;;5056698;28;20227;-91
2023/04/02 02:46:12;;;;;;;14.33;12.20;;;8.10;99.90;;;;;;5057417;28;20250;-90
2023/04/02 02:48:58;;;;;;;14.97;12.27;;;8.10;99.90;;;;;;4930336;29;20788;-91
2023/04/02 02:52:14;;;;;;;15.00;11.87;;;8.10;99.90;;;;;;4945702;29;20199;-90
2023/04/02 02:58:35;;;;;;;;;;;;;;;;;;;;;
2023/04/02 03:01:15;;;;;;;16.53;12.67;;;8.00;99.90;;;;;;4945770;29;20361;-90
2023/04/02 03:04:02;;;;;;;14.13;11.60;;;8.10;99.90;;;;;;4924998;29;20229;-90
2023/04/02 03:06:44;;;;;;;16.50;13.17;;;8.00;99.90;;;;;;4966209;28;20210;-89
2023/04/02 03:10:11;;;;;;;17.13;13.17;;;8.00;99.90;;;;;;4967212;28;20167;-90
2023/04/02 03:13:30;;;;;;;16.40;13.63;;;8.10;99.90;;;;;;4998262;28;20183;-90
2023/04/02 03:16:41;;;;;;;15.37;13.20;;;8.00;99.90;;;;;;4903907;29;20673;-90
2023/04/02 03:19:40;;;;;;;15.43;11.13;;;8.00;99.90;;;;;;5055577;28;20185;-90
2023/04/02 03:22:37;;;;;;;17.03;13.37;;;7.90;99.90;;;;;;5048709;28;20670;-91
2023/04/02 03:25:21;;;;;;;16.93;14.90;;;7.90;99.90;;;;;;5056142;28;20187;-92
2023/04/02 03:28:07;;;;;;;;;;;;;;;;;;;;;
2023/04/02 03:31:13;;;;;;;;;;;;;;;;;;;;;
2023/04/02 03:44:36;;;;;;;18.47;15.70;;;8.00;99.90;;;;;;5057667;28;20648;-92
2023/04/02 03:48:02;;;;;;;19.43;14.60;;;8.00;99.90;;;;;;5046376;28;20195;-91
2023/04/02 04:01:57;;;;;;;18.17;14.60;;;7.90;99.90;;;;;;5024386;28;20180;-91
2023/04/02 04:08:28;;;;;;;20.13;16.00;;;7.90;99.90;;;;;;5071224;28;20214;-91
2023/04/02 04:11:09;;;;;;;19.73;16.67;;;7.90;99.90;;;;;;5063783;28;20173;-90
2023/04/02 04:14:18;;;;;;;19.93;13.70;;;7.80;99.90;;;;;;5066910;28;20637;-90
2023/04/02 04:17:12;;;;;;;20.03;15.00;;;7.70;99.90;;;;;;5058642;28;20208;-90
2023/04/02 04:19:58;;;;;;;24.37;17.67;;;7.60;99.90;;;;;;5059637;28;20177;-90
2023/04/02 04:22:48;;;;;;;23.00;17.13;;;7.60;99.90;;;;;;5067278;28;20189;-91
2023/04/02 04:26:05;;;;;;;22.90;17.93;;;7.60;99.90;;;;;;5069738;28;20181;-90
2023/04/02 04:35:57;;;;;;;24.17;17.70;;;7.50;99.90;;;;;;4980076;28;20179;-90
2023/04/02 04:39:24;;;;;;;;;;;;;;;;;;;;;
2023/04/02 04:49:13;;;;;;;24.27;19.63;;;7.60;99.90;;;;;;4955565;28;20638;-90
2023/04/02 04:52:10;;;;;;;27.17;21.20;;;7.60;99.90;;;;;;4967114;29;20214;-90
2023/04/02 04:55:09;;;;;;;27.63;22.13;;;7.60;99.90;;;;;;4939884;29;20207;-91
2023/04/02 04:57:43;;;;;;;29.27;23.27;;;7.50;99.90;;;;;;5067903;28;20203;-91
2023/04/02 05:01:18;;;;;;;;;;;;;;;;;;;;;
2023/04/02 05:04:19;;;;;;;22.17;15.70;;;7.50;99.90;;;;;;5056525;28;20262;-87
2023/04/02 05:07:29;;;;;;;23.80;16.23;;;7.40;99.90;;;;;;5071747;28;20169;-90
2023/04/02 05:10:23;;;;;;;26.27;20.00;;;7.40;99.90;;;;;;5054992;28;20168;-90
2023/04/02 05:16:49;;;;;;;24.03;18.00;;;7.40;99.90;;;;;;5055646;28;20688;-91
2023/04/02 05:19:55;;;;;;;25.53;19.73;;;7.40;99.90;;;;;;5053845;28;20268;-92
2023/04/02 05:29:36;;;;;;;25.97;18.80;;;7.30;99.90;;;;;;5008340;28;20188;-90
2023/04/02 05:39:03;;;;;;;28.13;20.83;;;7.20;99.90;;;;;;4897500;29;20186;-90
2023/04/02 05:41:56;;;;;;;30.30;18.40;;;7.10;99.90;;;;;;5055249;28;20182;-91
2023/04/02 05:44:46;;;;;;;28.00;22.37;;;7.20;99.90;;;;;;5054494;28;20679;-90
2023/04/02 05:51:18;;;;;;;18.97;12.50;;;7.20;99.90;;;;;;4977841;28;20217;-89
2023/04/02 06:11:44;;;;;;;;;;;;;;;;;;;;;
2023/04/02 06:14:29;;;;;;;19.43;14.77;;;7.10;99.90;;;;;;4846683;29;20177;-91
2023/04/02 06:17:45;;;;;;;20.77;16.13;;;7.10;99.90;;;;;;4863332;29;20208;-91
2023/04/02 06:23:52;;;;;;;22.47;16.57;;;7.10;99.90;;;;;;5049574;28;20183;-88
2023/04/02 06:26:56;;;;;;;17.43;13.63;;;7.10;99.90;;;;;;5056146;28;20176;-88
2023/04/02 06:29:51;;;;;;;19.13;15.70;;;7.00;99.90;;;;;;5059244;28;20164;-90
2023/04/02 06:32:54;;;;;;;24.10;17.10;;;7.10;99.90;;;;;;5035419;28;20189;-89
2023/04/02 06:35:58;;;;;;;21.03;17.03;;;7.10;99.90;;;;;;5062302;28;20228;-89
2023/04/02 06:39:35;;;;;;;26.07;20.20;;;7.10;99.90;;;;;;5052944;28;20193;-88
2023/04/02 06:56:41;;;;;;;22.60;19.80;;;7.00;99.90;;;;;;5018726;28;20178;-88
2023/04/02 06:59:36;;;;;;;25.27;19.60;;;7.00;99.90;;;;;;4986766;28;20188;-90
2023/04/02 07:13:08;;;;;;;;;;;;;;;;;;;;;
2023/04/02 07:16:24;;;;;;;19.03;13.40;;;6.60;99.90;;;;;;4953437;28;20297;-92
2023/04/02 07:29:18;;;;;;;18.03;15.13;;;6.90;99.90;;;;;;4997185;28;20265;-90
2023/04/02 07:39:44;;;;;;;20.70;17.30;;;6.80;99.90;;;;;;4899247;29;20298;-90
2023/04/02 07:43:04;;;;;;;19.43;15.40;;;6.80;99.90;;;;;;4991834;28;20228;-88
2023/04/02 07:45:22;;;;;;;19.93;14.87;;;6.70;99.90;;;;;;5046975;28;20176;-90
2023/04/02 07:48:05;;;;;;;;;;;;;;;;;;;;;
2023/04/02 07:51:25;;;;;;;;;;;;;;;;;;;;;
2023/04/02 08:22:38;;;;;;;23.17;17.90;;;6.50;99.90;;;;;;4929294;29;20205;-89
2023/04/02 08:28:29;;;;;;;23.20;16.37;;;6.60;99.90;;;;;;4952573;29;20176;-90
2023/04/02 08:30:56;;;;;;;23.63;16.80;;;6.50;99.90;;;;;;4942278;29;20705;-89
2023/04/02 08:41:00;;;;;;;22.67;17.23;;;6.70;99.90;;;;;;4937767;29;20196;-88
2023/04/02 08:44:10;;;;;;;22.77;17.87;;;6.70;99.90;;;;;;4926099;29;20298;-89
2023/04/02 08:51:23;;;;;;;20.37;15.37;;;6.70;99.90;;;;;;4962076;28;20184;-92
2023/04/02 08:54:32;;;;;;;19.70;13.73;;;6.60;99.90;;;;;;5054227;28;20165;-88
2023/04/02 08:57:20;;;;;;;22.17;17.63;;;6.50;99.90;;;;;;5061518;28;20220;-89
2023/04/02 09:00:37;;;;;;;22.27;18.27;;;6.50;99.90;;;;;;5046644;28;20173;-89
2023/04/02 09:03:48;;;;;;;21.20;14.50;;;6.50;99.90;;;;;;5058358;28;20177;-89
2023/04/02 09:06:55;;;;;;;20.63;16.20;;;6.50;99.90;;;;;;4964690;28;20270;-90
2023/04/02 09:09:32;;;;;;;19.60;16.50;;;6.40;99.90;;;;;;4959834;28;20226;-90
2023/04/02 09:12:48;;;;;;;20.60;17.57;;;6.40;99.90;;;;;;5034777;28;20207;-91
2023/04/02 09:16:15;;;;;;;;;;;;;;;;;;;;;
2023/04/02 09:22:47;;;;;;;19.13;15.17;;;6.40;99.90;;;;;;5010402;28;20230;-91
2023/04/02 09:29:31;;;;;;;21.80;15.70;;;6.40;99.90;;;;;;4962192;29;20203;-89
2023/04/02 09:32:35;;;;;;;19.57;15.43;;;6.50;99.90;;;;;;4963873;28;20214;-90
2023/04/02 09:35:39;;;;;;;22.63;16.07;;;6.50;99.90;;;;;;4992148;28;20238;-88
2023/04/02 09:39:15;;;;;;;24.93;17.33;;;6.40;99.90;;;;;;4977043;29;20199;-90
2023/04/02 09:42:22;;;;;;;19.47;13.90;;;6.30;99.90;;;;;;4900956;29;20235;-89
2023/04/02 09:45:55;;;;;;;;;;;;;;;;;;;;;
2023/04/02 09:49:21;;;;;;;26.67;19.43;;;6.30;99.90;;;;;;4884760;29;20343;-90
2023/04/02 09:52:58;;;;;;;;;;;;;;;;;;;;;
2023/04/02 09:55:43;;;;;;;18.33;14.97;;;6.50;99.90;;;;;;4883199;29;20333;-91
2023/04/02 09:59:22;;;;;;;20.03;15.10;;;6.40;99.90;;;;;;4878136;29;20199;-90
2023/04/02 10:02:32;;;;;;;14.37;12.67;;;6.30;99.90;;;;;;4861564;29;20219;-90
2023/04/02 10:08:27;;;;;;;17.07;12.53;;;6.30;99.90;;;;;;4861346;29;20248;-89
2023/04/02 10:11:16;;;;;;;14.43;11.27;;;6.20;99.90;;;;;;4889352;29;20192;-90
2023/04/02 10:20:46;;;;;;;11.13;9.13;;;6.40;99.90;;;;;;4993891;28;20173;-90
2023/04/02 10:23:28;;;;;;;10.63;9.47;;;6.40;99.90;;;;;;4977803;28;20258;-90
2023/04/02 10:26:23;;;;;;;11.30;9.97;;;6.50;99.90;;;;;;4979578;28;20275;-90
2023/04/02 10:29:08;;;;;;;11.07;8.87;;;6.50;99.90;;;;;;5030746;28;20272;-89
2023/04/02 10:31:43;;;;;;;9.37;8.27;;;6.60;99.90;;;;;;5037333;28;20258;-89
2023/04/02 10:44:49;;;;;;;10.93;7.07;;;6.60;99.90;;;;;;4975302;28;20557;-89
2023/04/02 10:47:45;;;;;;;8.03;6.77;;;6.70;99.90;;;;;;4967135;28;20176;-87
2023/04/02 10:54:32;;;;;;;8.27;5.97;;;6.80;99.90;;;;;;5034889;28;20201;-87
2023/04/02 10:57:54;;;;;;;6.60;5.17;;;6.80;99.90;;;;;;5041099;28;20240;-88
2023/04/02 11:00:26;;;;;;;7.73;5.10;;;6.70;99.90;;;;;;5042312;28;20185;-87
2023/04/02 11:03:43;;;;;;;8.33;5.60;;;6.80;99.90;;;;;;5052810;28;20245;-87
2023/04/02 11:07:01;;;;;;;;;;;;;;;;;;;;;
2023/04/02 11:10:56;;;;;;;7.23;5.30;;;6.70;99.90;;;;;;5051838;28;20728;-88
2023/04/02 11:13:48;;;;;;;8.07;5.10;;;6.80;99.90;;;;;;5029717;28;20197;-87
2023/04/02 11:16:20;;;;;;;9.73;5.80;;;6.80;99.90;;;;;;5021823;28;20217;-86
2023/04/02 11:19:32;;;;;;;7.67;5.47;;;6.80;99.90;;;;;;5021428;28;20233;-86
2023/04/02 11:22:17;;;;;;;8.80;5.80;;;7.00;99.90;;;;;;5020949;28;20546;-88
2023/04/02 11:25:10;;;;;;;;;;;;;;;;;;;;;
2023/04/02 11:27:41;;;;;;;9.13;5.20;;;7.00;99.90;;;;;;5045147;28;20241;-88
2023/04/02 11:30:35;;;;;;;7.17;5.37;;;7.00;99.90;;;;;;5026335;28;20687;-86
2023/04/02 11:34:02;;;;;;;9.77;5.93;;;7.00;99.90;;;;;;5050469;28;20216;-89
2023/04/02 11:47:56;;;;;;;6.50;4.93;;;7.00;99.90;;;;;;4906054;29;20208;-87
2023/04/02 11:53:52;;;;;;;8.67;5.43;;;7.10;99.90;;;;;;4904212;28;20211;-87
2023/04/02 11:57:41;;;;;;;7.90;4.93;;;7.00;99.90;;;;;;4958081;28;20207;-88
2023/04/02 12:00:38;;;;;;;7.17;5.30;;;6.90;99.90;;;;;;4961755;28;20649;-87
2023/04/02 12:03:52;;;;;;;8.50;4.80;;;6.90;99.90;;;;;;5049045;28;20182;-86
2023/04/02 12:07:08;;;;;;;9.77;5.23;;;7.10;99.90;;;;;;5028797;28;20182;-88
2023/04/02 12:13:36;;;;;;;5.53;3.70;;;7.10;99.90;;;;;;5050961;28;20189;-88
2023/04/02 12:16:09;;;;;;;7.13;4.70;;;6.90;99.90;;;;;;5056878;28;20185;-87
2023/04/02 12:19:07;;;;;;;6.20;3.97;;;7.00;99.90;;;;;;5048183;28;20165;-88
2023/04/02 12:21:34;;;;;;;5.20;3.87;;;6.90;99.90;;;;;;5015783;28;20267;-88
2023/04/02 12:24:44;;;;;;;5.20;3.53;;;7.00;99.90;;;;;;5045031;28;20693;-90
2023/04/02 12:27:37;;;;;;;6.10;4.13;;;7.10;99.90;;;;;;5037556;28;20247;-88
2023/04/02 12:31:23;;;;;;;;;;;;;;;;;;;;;
2023/04/02 12:50:45;;;;;;;7.03;3.70;;;7.10;99.90;;;;;;4933456;29;20313;-89
2023/04/02 13:03:27;;;;;;;5.03;3.53;;;7.10;99.90;;;;;;4958775;28;20216;-88
2023/04/02 13:06:35;;;;;;;6.57;3.50;;;7.10;99.90;;;;;;4938238;29;20265;-88
2023/04/02 13:10:33;;;;;;;6.77;3.27;;;7.30;99.90;;;;;;4942698;29;20205;-88
2023/04/02 13:13:02;;;;;;;4.93;3.53;;;7.30;99.90;;;;;;4910065;29;20182;-88
2023/04/02 13:15:55;;;;;;;4.93;3.53;;;7.30;99.90;;;;;;4899518;29;20182;-90
2023/04/02 13:18:40;;;;;;;4.70;3.33;;;7.10;99.90;;;;;;4883119;29;20206;-89
2023/04/02 13:21:47;;;;;;;;;;;;;;;;;;;;;
2023/04/02 13:24:31;;;;;;;6.43;3.87;;;7.10;99.90;;;;;;5054973;28;20215;-88
2023/04/02 13:27:11;;;;;;;6.83;2.87;;;7.10;99.90;;;;;;5043377;28;20220;-89
2023/04/02 13:29:53;;;;;;;6.43;3.43;;;7.20;99.90;;;;;;5044388;28;20220;-88
2023/04/02 13:32:33;;;;;;;5.97;3.63;;;7.20;99.90;;;;;;5051365;28;20179;-90
2023/04/02 13:35:16;;;;;;;4.97;3.27;;;7.30;99.90;;;;;;5070678;28;20165;-88
2023/04/02 13:38:06;;;;;;;;;;;;;;;;;;;;;
2023/04/02 13:40:46;;;;;;;6.50;3.70;;;7.30;99.90;;;;;;5056323;28;20247;-87
2023/04/02 13:43:41;;;;;;;5.30;3.23;;;7.20;99.90;;;;;;5039938;28;20203;-88
2023/04/02 13:46:18;;;;;;;5.83;3.70;;;7.20;99.90;;;;;;5055162;28;20260;-88
2023/04/02 13:48:47;;;;;;;4.23;3.30;;;7.00;99.90;;;;;;5040705;28;20165;-88
2023/04/02 13:51:51;;;;;;;4.73;3.00;;;7.10;99.90;;;;;;5044879;28;20180;-90
2023/04/02 13:55:02;;;;;;;3.90;3.10;;;7.00;99.90;;;;;;5026648;28;20275;-88
2023/04/02 13:57:37;;;;;;;4.70;3.00;;;7.00;99.90;;;;;;4996492;28;20209;-88
2023/04/02 14:00:50;;;;;;;3.83;2.90;;;7.00;99.90;;;;;;4996982;28;20270;-88
2023/04/02 14:03:40;;;;;;;7.27;3.17;;;7.00;99.90;;;;;;5033358;28;20204;-88
2023/04/02 14:06:37;;;;;;;4.83;2.73;;;7.20;99.90;;;;;;4991832;28;20185;-87
2023/04/02 14:09:20;;;;;;;5.00;3.23;;;7.20;99.90;;;;;;4978078;28;20186;-90
2023/04/02 14:12:13;;;;;;;4.70;2.87;;;7.10;99.90;;;;;;4994851;28;20706;-88
2023/04/02 14:15:31;;;;;;;6.30;3.00;;;7.20;99.90;;;;;;4994036;28;20638;-89
2023/04/02 14:18:40;;;;;;;4.20;3.33;;;7.20;99.90;;;;;;4997336;28;20601;-91
2023/04/02 14:25:24;;;;;;;;;;;;;;;;;;;;;
2023/04/02 14:28:22;;;;;;;5.60;3.27;;;7.20;99.90;;;;;;4966875;28;20373;-90
2023/04/02 14:31:30;;;;;;;4.03;3.20;;;7.10;99.90;;;;;;4987537;28;20251;-90
2023/04/02 14:34:38;;;;;;;5.70;3.83;;;7.30;99.90;;;;;;4998169;28;20170;-90
2023/04/02 14:37:21;;;;;;;5.10;2.70;;;7.40;99.90;;;;;;4984960;28;20607;-89
2023/04/02 14:40:05;;;;;;;5.60;3.33;;;7.30;99.90;;;;;;4976402;28;20171;-89
2023/04/02 14:42:46;;;;;;;6.10;3.63;;;7.20;99.90;;;;;;5000234;28;20697;-89
2023/04/02 14:45:31;;;;;;;5.70;3.30;;;7.20;99.90;;;;;;5044752;28;20204;-88
2023/04/02 14:48:04;;;;;;;5.07;3.17;;;7.20;99.90;;;;;;5027370;28;20169;-89
2023/04/02 14:50:38;;;;;;;5.63;3.17;;;7.20;99.90;;;;;;5038619;28;20165;-89
2023/04/02 14:53:40;;;;;;;6.10;3.43;;;7.20;99.90;;;;;;5046873;28;20267;-89
2023/04/02 14:56:19;;;;;;;6.80;3.17;;;7.20;99.90;;;;;;5048308;28;20196;-88
2023/04/02 14:58:51;;;;;;;6.07;3.07;;;7.20;99.90;;;;;;5028755;28;20173;-87
2023/04/02 15:01:34;;;;;;;3.60;3.00;;;7.20;99.90;;;;;;5028273;28;20181;-86
2023/04/02 15:04:19;;;;;;;6.60;3.97;;;7.10;99.90;;;;;;5060642;28;20177;-88
2023/04/02 15:06:53;;;;;;;6.10;3.37;;;7.20;99.90;;;;;;5036181;28;20168;-87
2023/04/02 15:09:38;;;;;;;5.07;3.40;;;7.20;99.90;;;;;;5031363;28;20183;-87
2023/04/02 15:12:36;;;;;;;6.13;3.97;;;7.00;99.90;;;;;;5039738;28;20182;-88
2023/04/02 15:15:19;;;;;;;6.03;3.87;;;7.10;99.90;;;;;;5020329;28;20205;-89
2023/04/02 15:17:47;;;;;;;6.40;4.43;;;7.10;99.90;;;;;;5016629;28;20700;-86
2023/04/02 15:20:17;;;;;;;7.30;4.40;;;7.10;99.90;;;;;;5018194;28;20173;-87
2023/04/02 15:23:20;;;;;;;6.57;4.60;;;7.20;99.90;;;;;;5018780;28;20308;-86
2023/04/02 15:25:58;;;;;;;5.17;3.97;;;7.20;99.90;;;;;;5016850;28;20227;-88
2023/04/02 15:29:00;;;;;;;5.40;3.90;;;7.20;99.90;;;;;;5016092;28;20193;-89
2023/04/02 15:31:41;;;;;;;4.80;3.80;;;7.20;99.90;;;;;;5018747;28;20537;-90
2023/04/02 15:35:01;;;;;;;7.27;4.20;;;7.10;99.90;;;;;;5017938;28;20216;-89
2023/04/02 15:38:23;;;;;;;9.43;4.47;;;7.20;99.90;;;;;;5018951;28;20209;-88
2023/04/02 15:41:02;;;;;;;6.30;4.10;;;7.20;99.90;;;;;;5017760;28;20258;-88
2023/04/02 15:44:11;;;;;;;;;;;;;;;;;;;;;
2023/04/02 15:51:06;;;;;;;7.63;4.53;;;7.10;99.90;;;;;;4958445;29;20207;-88
2023/04/02 15:54:48;;;;;;;7.27;4.63;;;7.10;99.90;;;;;;4943833;29;20211;-89
2023/04/02 15:58:03;;;;;;;;;;;;;;;;;;;;;
2023/04/02 16:01:07;;;;;;;5.80;4.23;;;7.20;99.90;;;;;;4964056;29;20654;-88
2023/04/02 16:04:12;;;;;;;5.33;3.63;;;7.20;99.90;;;;;;4963952;29;20267;-88
2023/04/02 16:07:18;;;;;;;8.93;3.90;;;7.20;99.90;;;;;;4962908;29;20180;-89
2023/04/02 16:10:05;;;;;;;8.90;4.17;;;7.10;99.90;;;;;;4962837;29;20180;-89
2023/04/02 16:12:37;;;;;;;6.47;3.70;;;7.20;99.90;;;;;;4958877;29;20196;-87
2023/04/02 16:15:22;;;;;;;6.87;3.60;;;7.20;99.90;;;;;;5010478;28;20212;-87
2023/04/02 16:18:24;;;;;;;4.73;3.23;;;7.30;99.90;;;;;;5056152;28;20188;-89
2023/04/02 16:21:31;;;;;;;5.63;3.57;;;7.30;99.90;;;;;;5035890;28;20665;-89
2023/04/02 16:24:16;;;;;;;5.20;3.20;;;7.30;99.90;;;;;;5040522;28;20654;-91
2023/04/02 16:27:24;;;;;;;6.93;3.53;;;7.20;99.90;;;;;;5018634;28;20201;-88
2023/04/02 16:30:30;;;;;;;6.00;3.10;;;7.20;99.90;;;;;;5017181;28;20661;-88
2023/04/02 16:33:33;;;;;;;4.47;3.00;;;7.20;99.90;;;;;;5021821;28;20177;-89
2023/04/02 16:36:24;;;;;;;5.00;2.77;;;7.20;99.90;;;;;;5025554;28;20212;-91
2023/04/02 16:39:17;;;;;;;4.60;2.60;;;7.10;99.90;;;;;;5020150;28;20180;-90
2023/04/02 16:42:28;;;;;;;3.37;2.30;;;7.20;99.90;;;;;;5024458;28;20183;-91
2023/04/02 16:48:37;;;;;;;3.30;2.00;;;7.20;99.90;;;;;;5002685;28;20193;-91
2023/04/02 16:51:57;;;;;;;3.87;1.80;;;7.20;99.90;;;;;;5014090;28;20171;-90
2023/04/02 16:54:42;;;;;;;2.50;1.70;;;7.30;99.90;;;;;;5039923;28;20182;-91
2023/04/02 16:57:51;;;;;;;5.13;2.20;;;7.30;99.90;;;;;;5029590;28;20293;-90
2023/04/02 17:00:50;;;;;;;4.10;2.20;;;7.30;99.90;;;;;;5029254;28;20184;-91
2023/04/02 17:04:26;;;;;;;4.27;2.30;;;7.60;99.90;;;;;;5038412;28;20181;-90
2023/04/02 17:07:30;;;;;;;3.43;2.20;;;8.10;99.90;;;;;;4974244;28;20196;-92
2023/04/02 17:10:38;;;;;;;3.87;1.87;;;8.40;99.90;;;;;;4916703;29;20193;-90
2023/04/02 17:13:33;;;;;;;3.80;2.23;;;8.60;99.90;;;;;;4951059;28;20183;-90
2023/04/02 17:16:16;;;;;;;3.20;1.87;;;8.40;99.90;;;;;;4995856;28;20241;-88
2023/04/02 17:18:58;;;;;;;4.33;2.90;;;8.40;99.90;;;;;;5036636;28;20166;-89
2023/04/02 17:22:00;;;;;;;3.13;1.67;;;8.40;99.90;;;;;;5043337;28;20178;-88
2023/04/02 17:25:22;;;;;;;4.03;1.77;;;8.40;99.90;;;;;;5032858;28;20181;-91
2023/04/02 17:28:14;;;;;;;4.73;2.07;;;8.50;99.90;;;;;;5028923;28;20189;-88
2023/04/02 17:31:02;;;;;;;3.13;1.93;;;8.90;99.90;;;;;;5060782;28;20216;-92
2023/04/02 17:34:05;;;;;;;;;;;;;;;;;;;;;
2023/04/02 17:36:58;;;;;;;3.43;2.20;;;10.10;99.90;;;;;;5044491;28;20284;-94
2023/04/02 17:40:12;;;;;;;4.80;2.70;;;10.50;99.90;;;;;;5035348;28;20172;-92
2023/04/02 17:43:17;;;;;;;;;;;;;;;;;;;;;
2023/04/02 17:46:19;;;;;;;3.93;2.53;;;10.50;99.90;;;;;;5039668;28;20189;-92
2023/04/02 17:49:21;;;;;;;4.93;2.60;;;9.80;99.90;;;;;;5051231;28;20181;-91
2023/04/02 17:52:20;;;;;;;5.70;2.93;;;9.40;99.90;;;;;;5020554;28;20180;-91
2023/04/02 17:55:13;;;;;;;3.53;2.60;;;9.40;99.90;;;;;;5034650;28;20277;-90
2023/04/02 17:58:04;;;;;;;4.53;2.30;;;9.20;99.90;;;;;;5036076;28;20209;-92
2023/04/02 18:01:13;;;;;;;3.67;2.50;;;9.00;99.90;;;;;;5029608;28;20165;-92
2023/04/02 18:04:41;;;;;;;4.17;3.40;;;8.80;99.90;;;;;;5022831;28;20169;-92
2023/04/02 18:07:54;;;;;;;;;;;;;;;;;;;;;
2023/04/02 18:10:48;;;;;;;6.53;4.80;;;8.50;99.90;;;;;;5039282;28;20257;-93
2023/04/02 18:14:09;;;;;;;5.20;3.87;;;8.30;99.90;;;;;;5051808;28;20173;-89
2023/04/02 18:21:05;;;;;;;5.57;4.97;;;7.90;99.90;;;;;;5034442;28;20204;-93
2023/04/02 18:24:51;;;;;;;6.67;5.53;;;7.80;99.90;;;;;;5024259;28;20662;-93
2023/04/02 18:28:14;;;;;;;6.80;6.00;;;7.80;99.90;;;;;;5028373;28;20256;-94
2023/04/02 18:30:53;;;;;;;9.13;6.23;;;7.70;99.90;;;;;;5042062;28;20268;-94
2023/04/02 18:34:21;;;;;;;7.30;6.40;;;7.70;99.90;;;;;;5040701;28;20199;-92
2023/04/02 18:37:27;;;;;;;9.13;6.93;;;7.60;99.90;;;;;;4966544;28;20238;-93
2023/04/02 18:40:34;;;;;;;8.00;7.17;;;7.50;99.90;;;;;;5041201;28;20173;-94
2023/04/02 18:43:39;;;;;;;9.00;7.63;;;7.40;99.90;;;;;;5058495;28;20172;-91
2023/04/02 18:56:54;;;;;;;8.33;7.10;;;7.50;99.90;;;;;;4944942;29;20209;-92
2023/04/02 19:00:04;;;;;;;8.77;7.30;;;7.50;99.90;;;;;;4948416;29;20183;-93
2023/04/02 19:06:33;;;;;;;8.83;7.60;;;7.50;99.90;;;;;;4941402;29;20865;-92
2023/04/02 19:16:31;;;;;;;9.43;7.73;;;7.40;99.90;;;;;;4866740;29;20194;-93
2023/04/02 19:19:37;;;;;;;;;;;;;;;;;;;;;
2023/04/02 19:36:09;;;;;;;9.03;7.20;;;7.70;99.90;;;;;;4984381;28;20288;-93
2023/04/02 19:42:45;;;;;;;8.80;7.83;;;7.70;99.90;;;;;;4998922;28;20261;-92
2023/04/02 19:45:40;;;;;;;;;;;;;;;;;;;;;
2023/04/02 19:49:01;;;;;;;8.90;7.40;;;7.70;99.90;;;;;;5039447;28;20174;-91
2023/04/02 19:59:39;;;;;;;9.87;7.73;;;7.70;99.90;;;;;;4907766;29;20258;-91
2023/04/02 20:02:32;;;;;;;11.43;9.30;;;7.60;99.90;;;;;;4902977;29;20185;-91
2023/04/02 20:05:12;;;;;;;12.30;9.10;;;7.70;99.90;;;;;;4964918;28;20190;-91
2023/04/02 20:07:59;;;;;;;12.17;8.80;;;7.70;99.90;;;;;;4974907;28;20215;-92
2023/04/02 20:15:10;;;;;;;;;;;;;;;;;;;;;
2023/04/02 20:17:58;;;;;;;12.17;10.20;;;7.60;99.90;;;;;;4961932;28;20288;-92
2023/04/02 20:20:49;;;;;;;11.60;9.83;;;7.50;99.90;;;;;;5020941;28;20842;-93
2023/04/02 20:30:22;;;;;;;11.33;8.67;;;7.30;99.90;;;;;;4975994;28;20213;-92
2023/04/02 20:33:01;;;;;;;16.47;10.50;;;7.30;99.90;;;;;;5021918;28;20180;-91
2023/04/02 20:39:58;;;;;;;10.90;9.57;;;7.30;99.90;;;;;;4980737;28;20201;-89
2023/04/02 20:43:43;;;;;;;;;;;;;;;;;;;;;
2023/04/02 20:46:37;;;;;;;11.30;9.63;;;7.20;99.90;;;;;;4879997;29;20203;-91
2023/04/02 20:53:00;;;;;;;13.03;9.93;;;7.30;99.90;;;;;;4830243;29;20192;-92
2023/04/02 20:55:52;;;;;;;11.30;9.83;;;7.30;99.90;;;;;;4847946;29;20293;-91
2023/04/02 20:58:31;;;;;;;11.43;9.67;;;7.30;99.90;;;;;;4916383;29;20201;-89
2023/04/02 21:01:19;;;;;;;10.43;8.77;;;7.30;99.90;;;;;;4914571;29;20190;-90
2023/04/02 21:04:49;;;;;;;;;;;;;;;;;;;;;
2023/04/02 21:08:23;;;;;;;;;;;;;;;;;;;;;
2023/04/02 21:14:30;;;;;;;12.23;9.53;;;7.00;99.90;;;;;;5022553;28;20933;-89
2023/04/02 21:17:02;;;;;;;11.37;9.13;;;7.00;99.90;;;;;;5045468;28;20296;-90
2023/04/02 21:19:34;;;;;;;11.10;8.73;;;7.00;99.90;;;;;;5035103;28;20556;-91
2023/04/02 21:26:18;;;;;;;10.80;8.00;;;7.00;99.90;;;;;;4895372;29;20229;-90
2023/04/02 21:28:46;;;;;;;9.70;7.27;;;6.90;99.90;;;;;;4910863;29;20186;-91
2023/04/02 21:32:02;;;;;;;10.50;7.30;;;6.80;99.90;;;;;;5009036;28;20236;-89
2023/04/02 21:34:27;;;;;;;9.40;6.97;;;6.90;99.90;;;;;;5043251;28;20753;-90
2023/04/02 21:36:59;;;;;;;9.93;6.97;;;7.00;99.90;;;;;;5029301;28;20291;-91
2023/04/02 21:39:24;;;;;;;7.80;5.87;;;6.80;99.90;;;;;;5022498;28;20196;-88
2023/04/02 21:41:59;;;;;;;10.67;7.47;;;6.80;99.90;;;;;;5057105;28;20181;-90
2023/04/02 21:45:23;;;;;;;12.63;7.30;;;6.80;99.90;;;;;;5040878;28;20208;-91
2023/04/02 21:48:03;;;;;;;11.03;7.53;;;6.70;99.90;;;;;;5054771;28;20233;-91
2023/04/02 21:51:23;;;;;;;10.37;7.00;;;6.70;99.90;;;;;;5042104;28;20172;-91
2023/04/02 21:53:57;;;;;;;8.67;6.33;;;6.70;99.90;;;;;;5058419;28;20252;-90
2023/04/02 21:56:43;;;;;;;;;;;;;;;;;;;;;
2023/04/02 21:59:12;;;;;;;8.87;6.50;;;6.70;99.90;;;;;;5060823;28;20236;-92
2023/04/02 22:01:48;;;;;;;11.07;6.40;;;6.70;99.90;;;;;;5045728;28;20585;-91
2023/04/02 22:04:26;;;;;;;10.20;6.77;;;6.50;99.90;;;;;;5041211;28;20180;-92
2023/04/02 22:06:53;;;;;;;7.97;6.50;;;6.60;99.90;;;;;;5043823;28;20271;-91
2023/04/02 22:09:35;;;;;;;10.33;7.17;;;6.50;99.90;;;;;;5041173;28;20180;-91
2023/04/02 22:12:08;;;;;;;11.13;7.43;;;6.40;99.90;;;;;;5023771;28;20177;-91